MMSD/SJD METAR and TAF weather

Enter ICAO airport designator
Station Type Date Time Source
MMSD METAR 2019/10/23 19:45 UTC NOAA

MMSD 231945Z 00000KT 12SM SKC 33/03 A2986


Station Type Date Time Source
MMSD Decoded METAR 2019/10/23 19:45 UTC NOAA

San Jose Del Cabo , Mexico (MMSD) 23-09N 109-42W
Oct 23, 2019 - 03:45 PM EDT / 2019.10.23 1945 UTC
Wind: Calm:0
Visibility: 12 mile(s):0
Sky conditions: clear
Temperature: 91 F (33 C)
Dew Point: 37 F (3 C)
Relative Humidity: 15%
Pressure (altimeter): 29.86 in. Hg (1011 hPa)
ob: MMSD 231945Z 00000KT 12SM SKC 33/03 A2986
cycle: 20

Station Type Date Time Source
MMSD TAF 2019/10/23 18:15 UTC NOAA

TAF MMSD 231608Z 2318/2418 19010KT P6SM SKC
FM240400 03005KT P6SM SKC
FM241700 14008KT P6SM SKC

Example: see airport list